sensor_id;sensor_type;location;lat;lon;timestamp;P1;durP1;ratioP1;P2;durP2;ratioP2
84644;SDS011;74874;48.072;11.688;2024-01-15T00:01:41;7.70;;;3.40;;
84644;SDS011;74874;48.072;11.688;2024-01-15T00:04:08;7.35;;;3.25;;
84644;SDS011;74874;48.072;11.688;2024-01-15T00:06:33;8.48;;;3.83;;
84644;SDS011;74874;48.072;11.688;2024-01-15T00:08:58;9.40;;;3.80;;
84644;SDS011;74874;48.072;11.688;2024-01-15T00:11:24;9.18;;;4.03;;
84644;SDS011;74874;48.072;11.688;2024-01-15T00:13:49;11.15;;;4.55;;
84644;SDS011;74874;48.072;11.688;2024-01-15T00:16:14;12.07;;;4.28;;
84644;SDS011;74874;48.072;11.688;2024-01-15T00:18:40;9.30;;;3.83;;
84644;SDS011;74874;48.072;11.688;2024-01-15T00:21:05;11.40;;;4.90;;
84644;SDS011;74874;48.072;11.688;2024-01-15T00:23:30;11.30;;;4.75;;
84644;SDS011;74874;48.072;11.688;2024-01-15T00:25:56;12.10;;;4.47;;
84644;SDS011;74874;48.072;11.688;2024-01-15T00:28:21;9.30;;;4.93;;
84644;SDS011;74874;48.072;11.688;2024-01-15T00:30:47;9.63;;;4.35;;
84644;SDS011;74874;48.072;11.688;2024-01-15T00:33:12;10.68;;;4.63;;
84644;SDS011;74874;48.072;11.688;2024-01-15T00:35:39;12.07;;;4.93;;
84644;SDS011;74874;48.072;11.688;2024-01-15T00:38:05;11.23;;;4.85;;
84644;SDS011;74874;48.072;11.688;2024-01-15T00:40:30;11.02;;;4.82;;
84644;SDS011;74874;48.072;11.688;2024-01-15T00:42:55;10.32;;;4.47;;
84644;SDS011;74874;48.072;11.688;2024-01-15T00:45:20;8.40;;;4.82;;
84644;SDS011;74874;48.072;11.688;2024-01-15T00:47:46;9.45;;;4.38;;
84644;SDS011;74874;48.072;11.688;2024-01-15T00:50:12;12.30;;;4.97;;
84644;SDS011;74874;48.072;11.688;2024-01-15T00:52:37;10.85;;;5.45;;
84644;SDS011;74874;48.072;11.688;2024-01-15T00:55:02;11.00;;;4.80;;
84644;SDS011;74874;48.072;11.688;2024-01-15T00:57:28;10.50;;;5.35;;
84644;SDS011;74874;48.072;11.688;2024-01-15T00:59:53;8.32;;;4.53;;
84644;SDS011;74874;48.072;11.688;2024-01-15T01:02:19;12.93;;;5.20;;
84644;SDS011;74874;48.072;11.688;2024-01-15T01:04:44;15.82;;;6.15;;
84644;SDS011;74874;48.072;11.688;2024-01-15T01:07:10;14.18;;;6.60;;
84644;SDS011;74874;48.072;11.688;2024-01-15T01:09:35;20.88;;;6.35;;
84644;SDS011;74874;48.072;11.688;2024-01-15T01:12:00;14.07;;;6.40;;
84644;SDS011;74874;48.072;11.688;2024-01-15T01:14:26;12.68;;;6.78;;
84644;SDS011;74874;48.072;11.688;2024-01-15T01:16:51;15.50;;;6.72;;
84644;SDS011;74874;48.072;11.688;2024-01-15T01:19:16;12.85;;;6.55;;
84644;SDS011;74874;48.072;11.688;2024-01-15T01:21:42;15.02;;;6.78;;
84644;SDS011;74874;48.072;11.688;2024-01-15T01:24:07;14.05;;;6.82;;
84644;SDS011;74874;48.072;11.688;2024-01-15T01:26:32;12.38;;;6.63;;
84644;SDS011;74874;48.072;11.688;2024-01-15T01:28:58;14.38;;;6.80;;
84644;SDS011;74874;48.072;11.688;2024-01-15T01:31:24;14.57;;;6.68;;
84644;SDS011;74874;48.072;11.688;2024-01-15T01:33:49;17.90;;;7.57;;
84644;SDS011;74874;48.072;11.688;2024-01-15T01:36:14;18.52;;;8.55;;
84644;SDS011;74874;48.072;11.688;2024-01-15T01:38:40;16.67;;;8.80;;
84644;SDS011;74874;48.072;11.688;2024-01-15T01:41:06;17.80;;;8.40;;
84644;SDS011;74874;48.072;11.688;2024-01-15T01:43:31;19.27;;;8.95;;
84644;SDS011;74874;48.072;11.688;2024-01-15T01:45:56;21.15;;;10.00;;
84644;SDS011;74874;48.072;11.688;2024-01-15T01:48:23;21.63;;;9.10;;
84644;SDS011;74874;48.072;11.688;2024-01-15T01:50:50;18.17;;;8.50;;
84644;SDS011;74874;48.072;11.688;2024-01-15T01:53:17;16.73;;;8.70;;
84644;SDS011;74874;48.072;11.688;2024-01-15T01:55:43;20.40;;;8.85;;
84644;SDS011;74874;48.072;11.688;2024-01-15T01:58:08;16.95;;;8.00;;
84644;SDS011;74874;48.072;11.688;2024-01-15T02:00:33;17.83;;;8.30;;
84644;SDS011;74874;48.072;11.688;2024-01-15T02:03:00;18.40;;;8.68;;
84644;SDS011;74874;48.072;11.688;2024-01-15T02:05:25;19.27;;;9.38;;
84644;SDS011;74874;48.072;11.688;2024-01-15T02:07:50;15.75;;;8.68;;
84644;SDS011;74874;48.072;11.688;2024-01-15T02:10:16;16.67;;;8.65;;
84644;SDS011;74874;48.072;11.688;2024-01-15T02:12:42;19.48;;;9.20;;
84644;SDS011;74874;48.072;11.688;2024-01-15T02:15:07;18.33;;;7.93;;
84644;SDS011;74874;48.072;11.688;2024-01-15T02:17:33;18.52;;;8.55;;
84644;SDS011;74874;48.072;11.688;2024-01-15T02:19:58;17.13;;;8.40;;
84644;SDS011;74874;48.072;11.688;2024-01-15T02:22:23;16.25;;;7.72;;
84644;SDS011;74874;48.072;11.688;2024-01-15T02:24:49;15.60;;;7.72;;
84644;SDS011;74874;48.072;11.688;2024-01-15T02:27:14;15.15;;;7.53;;
84644;SDS011;74874;48.072;11.688;2024-01-15T02:29:40;15.45;;;8.18;;
84644;SDS011;74874;48.072;11.688;2024-01-15T02:32:06;14.77;;;7.13;;
84644;SDS011;74874;48.072;11.688;2024-01-15T02:34:32;15.20;;;7.50;;
84644;SDS011;74874;48.072;11.688;2024-01-15T02:36:57;15.65;;;7.45;;
84644;SDS011;74874;48.072;11.688;2024-01-15T02:39:23;21.40;;;9.63;;
84644;SDS011;74874;48.072;11.688;2024-01-15T02:41:48;15.88;;;8.30;;
84644;SDS011;74874;48.072;11.688;2024-01-15T02:44:13;16.75;;;7.78;;
84644;SDS011;74874;48.072;11.688;2024-01-15T02:46:39;16.08;;;7.57;;
84644;SDS011;74874;48.072;11.688;2024-01-15T02:49:04;16.42;;;7.25;;
84644;SDS011;74874;48.072;11.688;2024-01-15T02:51:29;18.60;;;8.60;;
84644;SDS011;74874;48.072;11.688;2024-01-15T02:53:55;18.02;;;6.85;;
84644;SDS011;74874;48.072;11.688;2024-01-15T02:56:20;14.43;;;7.90;;
84644;SDS011;74874;48.072;11.688;2024-01-15T02:58:45;15.80;;;7.32;;
84644;SDS011;74874;48.072;11.688;2024-01-15T03:01:11;15.05;;;7.97;;
84644;SDS011;74874;48.072;11.688;2024-01-15T03:03:36;17.00;;;7.80;;
84644;SDS011;74874;48.072;11.688;2024-01-15T03:06:01;15.38;;;7.22;;
84644;SDS011;74874;48.072;11.688;2024-01-15T03:08:27;16.17;;;7.15;;
84644;SDS011;74874;48.072;11.688;2024-01-15T03:10:57;17.67;;;7.32;;
84644;SDS011;74874;48.072;11.688;2024-01-15T03:13:22;15.43;;;7.43;;
84644;SDS011;74874;48.072;11.688;2024-01-15T03:15:48;15.15;;;6.55;;
84644;SDS011;74874;48.072;11.688;2024-01-15T03:18:13;16.77;;;6.82;;
84644;SDS011;74874;48.072;11.688;2024-01-15T03:20:38;13.95;;;7.00;;
84644;SDS011;74874;48.072;11.688;2024-01-15T03:23:04;15.70;;;7.13;;
84644;SDS011;74874;48.072;11.688;2024-01-15T03:25:29;14.10;;;6.03;;
84644;SDS011;74874;48.072;11.688;2024-01-15T03:27:54;13.27;;;7.00;;
84644;SDS011;74874;48.072;11.688;2024-01-15T03:30:20;10.75;;;4.82;;
84644;SDS011;74874;48.072;11.688;2024-01-15T03:32:45;15.55;;;5.22;;
84644;SDS011;74874;48.072;11.688;2024-01-15T03:35:12;10.80;;;4.78;;
84644;SDS011;74874;48.072;11.688;2024-01-15T03:37:37;11.68;;;4.90;;
84644;SDS011;74874;48.072;11.688;2024-01-15T03:40:03;11.02;;;4.88;;
84644;SDS011;74874;48.072;11.688;2024-01-15T03:42:28;11.10;;;5.25;;
84644;SDS011;74874;48.072;11.688;2024-01-15T03:44:54;12.68;;;5.65;;
84644;SDS011;74874;48.072;11.688;2024-01-15T03:47:19;13.30;;;5.57;;
84644;SDS011;74874;48.072;11.688;2024-01-15T03:49:44;14.30;;;5.75;;
84644;SDS011;74874;48.072;11.688;2024-01-15T03:52:10;16.23;;;6.70;;
84644;SDS011;74874;48.072;11.688;2024-01-15T03:54:35;13.32;;;5.68;;
84644;SDS011;74874;48.072;11.688;2024-01-15T03:57:00;12.88;;;6.05;;
84644;SDS011;74874;48.072;11.688;2024-01-15T03:59:26;10.10;;;5.10;;
84644;SDS011;74874;48.072;11.688;2024-01-15T04:01:51;10.35;;;5.57;;
84644;SDS011;74874;48.072;11.688;2024-01-15T04:04:17;12.85;;;5.72;;
84644;SDS011;74874;48.072;11.688;2024-01-15T04:06:43;12.88;;;5.30;;
84644;SDS011;74874;48.072;11.688;2024-01-15T04:09:08;11.20;;;5.47;;
84644;SDS011;74874;48.072;11.688;2024-01-15T04:11:33;14.30;;;5.57;;
84644;SDS011;74874;48.072;11.688;2024-01-15T04:13:59;11.90;;;5.47;;
84644;SDS011;74874;48.072;11.688;2024-01-15T04:16:24;10.38;;;4.97;;
84644;SDS011;74874;48.072;11.688;2024-01-15T04:18:49;14.90;;;5.78;;
84644;SDS011;74874;48.072;11.688;2024-01-15T04:21:16;10.13;;;5.53;;
84644;SDS011;74874;48.072;11.688;2024-01-15T04:23:42;12.63;;;5.45;;
84644;SDS011;74874;48.072;11.688;2024-01-15T04:26:08;13.68;;;6.32;;
84644;SDS011;74874;48.072;11.688;2024-01-15T04:28:33;15.27;;;6.45;;
84644;SDS011;74874;48.072;11.688;2024-01-15T04:30:59;13.70;;;5.70;;
84644;SDS011;74874;48.072;11.688;2024-01-15T04:33:24;11.13;;;5.57;;
84644;SDS011;74874;48.072;11.688;2024-01-15T04:35:49;10.15;;;5.05;;
84644;SDS011;74874;48.072;11.688;2024-01-15T04:38:15;10.95;;;5.45;;
84644;SDS011;74874;48.072;11.688;2024-01-15T04:40:40;12.15;;;5.55;;
84644;SDS011;74874;48.072;11.688;2024-01-15T04:43:05;11.30;;;6.00;;
84644;SDS011;74874;48.072;11.688;2024-01-15T04:45:31;11.05;;;4.75;;
84644;SDS011;74874;48.072;11.688;2024-01-15T04:47:56;11.00;;;4.90;;
84644;SDS011;74874;48.072;11.688;2024-01-15T04:50:23;15.27;;;6.35;;
84644;SDS011;74874;48.072;11.688;2024-01-15T04:52:49;15.95;;;5.35;;
84644;SDS011;74874;48.072;11.688;2024-01-15T04:55:14;13.70;;;5.68;;
84644;SDS011;74874;48.072;11.688;2024-01-15T04:57:40;11.95;;;5.10;;
84644;SDS011;74874;48.072;11.688;2024-01-15T05:00:06;11.50;;;5.30;;
84644;SDS011;74874;48.072;11.688;2024-01-15T05:02:32;10.98;;;4.88;;
84644;SDS011;74874;48.072;11.688;2024-01-15T05:04:57;11.13;;;5.30;;
84644;SDS011;74874;48.072;11.688;2024-01-15T05:07:22;10.05;;;5.05;;
84644;SDS011;74874;48.072;11.688;2024-01-15T05:09:48;11.93;;;4.75;;
84644;SDS011;74874;48.072;11.688;2024-01-15T05:12:13;9.70;;;4.60;;
84644;SDS011;74874;48.072;11.688;2024-01-15T05:14:38;10.18;;;5.00;;
84644;SDS011;74874;48.072;11.688;2024-01-15T05:17:04;10.85;;;4.80;;
84644;SDS011;74874;48.072;11.688;2024-01-15T05:19:29;10.85;;;5.25;;
84644;SDS011;74874;48.072;11.688;2024-01-15T05:21:54;10.20;;;4.50;;
84644;SDS011;74874;48.072;11.688;2024-01-15T05:24:20;11.27;;;4.38;;
84644;SDS011;74874;48.072;11.688;2024-01-15T05:26:45;11.43;;;4.53;;
84644;SDS011;74874;48.072;11.688;2024-01-15T05:29:10;8.57;;;4.28;;
84644;SDS011;74874;48.072;11.688;2024-01-15T05:31:36;9.63;;;4.45;;
84644;SDS011;74874;48.072;11.688;2024-01-15T05:34:01;8.25;;;4.25;;
84644;SDS011;74874;48.072;11.688;2024-01-15T05:36:26;10.27;;;4.05;;
84644;SDS011;74874;48.072;11.688;2024-01-15T05:38:52;10.60;;;4.68;;
84644;SDS011;74874;48.072;11.688;2024-01-15T05:41:17;8.50;;;4.18;;
84644;SDS011;74874;48.072;11.688;2024-01-15T05:43:43;10.23;;;4.30;;
84644;SDS011;74874;48.072;11.688;2024-01-15T05:46:08;7.47;;;3.72;;
84644;SDS011;74874;48.072;11.688;2024-01-15T05:48:34;9.70;;;4.22;;
84644;SDS011;74874;48.072;11.688;2024-01-15T05:50:59;10.77;;;4.07;;
84644;SDS011;74874;48.072;11.688;2024-01-15T05:53:25;8.20;;;4.10;;
84644;SDS011;74874;48.072;11.688;2024-01-15T05:55:50;9.73;;;4.15;;
84644;SDS011;74874;48.072;11.688;2024-01-15T05:58:15;11.73;;;4.22;;
84644;SDS011;74874;48.072;11.688;2024-01-15T06:00:41;9.25;;;4.10;;
84644;SDS011;74874;48.072;11.688;2024-01-15T06:03:08;9.48;;;4.40;;
84644;SDS011;74874;48.072;11.688;2024-01-15T06:05:33;11.85;;;5.50;;
84644;SDS011;74874;48.072;11.688;2024-01-15T06:07:59;11.75;;;4.40;;
84644;SDS011;74874;48.072;11.688;2024-01-15T06:10:24;9.43;;;4.60;;
84644;SDS011;74874;48.072;11.688;2024-01-15T06:12:49;12.23;;;5.38;;
84644;SDS011;74874;48.072;11.688;2024-01-15T06:15:15;8.57;;;4.88;;
84644;SDS011;74874;48.072;11.688;2024-01-15T06:17:40;10.98;;;5.25;;
84644;SDS011;74874;48.072;11.688;2024-01-15T06:20:06;11.98;;;5.28;;
84644;SDS011;74874;48.072;11.688;2024-01-15T06:22:31;10.63;;;5.20;;
84644;SDS011;74874;48.072;11.688;2024-01-15T06:24:57;12.07;;;5.43;;
84644;SDS011;74874;48.072;11.688;2024-01-15T06:27:22;11.35;;;5.25;;
84644;SDS011;74874;48.072;11.688;2024-01-15T06:29:47;10.98;;;4.38;;
84644;SDS011;74874;48.072;11.688;2024-01-15T06:32:13;9.63;;;4.43;;
84644;SDS011;74874;48.072;11.688;2024-01-15T06:34:38;11.98;;;5.47;;
84644;SDS011;74874;48.072;11.688;2024-01-15T06:37:04;13.82;;;5.32;;
84644;SDS011;74874;48.072;11.688;2024-01-15T06:39:29;11.38;;;4.93;;
84644;SDS011;74874;48.072;11.688;2024-01-15T06:41:55;10.98;;;4.85;;
84644;SDS011;74874;48.072;11.688;2024-01-15T06:44:20;11.55;;;5.00;;
84644;SDS011;74874;48.072;11.688;2024-01-15T06:46:46;9.63;;;4.60;;
84644;SDS011;74874;48.072;11.688;2024-01-15T06:49:12;9.13;;;4.63;;
84644;SDS011;74874;48.072;11.688;2024-01-15T06:51:37;10.77;;;4.45;;
84644;SDS011;74874;48.072;11.688;2024-01-15T06:54:03;10.23;;;4.75;;
84644;SDS011;74874;48.072;11.688;2024-01-15T06:56:28;10.15;;;4.82;;
84644;SDS011;74874;48.072;11.688;2024-01-15T06:58:54;10.40;;;5.05;;
84644;SDS011;74874;48.072;11.688;2024-01-15T07:01:19;10.95;;;4.32;;
84644;SDS011;74874;48.072;11.688;2024-01-15T07:03:45;14.50;;;5.68;;
84644;SDS011;74874;48.072;11.688;2024-01-15T07:06:11;11.43;;;5.32;;
84644;SDS011;74874;48.072;11.688;2024-01-15T07:08:36;12.68;;;5.03;;
84644;SDS011;74874;48.072;11.688;2024-01-15T07:11:05;11.48;;;4.95;;
84644;SDS011;74874;48.072;11.688;2024-01-15T07:13:31;10.38;;;4.97;;
84644;SDS011;74874;48.072;11.688;2024-01-15T07:15:56;10.82;;;4.68;;
84644;SDS011;74874;48.072;11.688;2024-01-15T07:18:22;8.57;;;4.22;;
84644;SDS011;74874;48.072;11.688;2024-01-15T07:20:48;12.57;;;4.88;;
84644;SDS011;74874;48.072;11.688;2024-01-15T07:23:13;10.55;;;5.25;;
84644;SDS011;74874;48.072;11.688;2024-01-15T07:25:39;12.02;;;4.28;;
84644;SDS011;74874;48.072;11.688;2024-01-15T07:28:04;10.77;;;4.30;;
84644;SDS011;74874;48.072;11.688;2024-01-15T07:30:30;10.48;;;4.57;;
84644;SDS011;74874;48.072;11.688;2024-01-15T07:32:55;11.70;;;5.57;;
84644;SDS011;74874;48.072;11.688;2024-01-15T07:35:21;9.52;;;4.40;;
84644;SDS011;74874;48.072;11.688;2024-01-15T07:37:46;13.38;;;6.43;;
84644;SDS011;74874;48.072;11.688;2024-01-15T07:40:11;11.18;;;4.78;;
84644;SDS011;74874;48.072;11.688;2024-01-15T07:42:37;10.60;;;4.90;;
84644;SDS011;74874;48.072;11.688;2024-01-15T07:45:03;9.82;;;4.55;;
84644;SDS011;74874;48.072;11.688;2024-01-15T07:47:29;12.18;;;5.40;;
84644;SDS011;74874;48.072;11.688;2024-01-15T07:49:55;12.30;;;4.85;;
84644;SDS011;74874;48.072;11.688;2024-01-15T07:52:21;11.90;;;5.18;;
84644;SDS011;74874;48.072;11.688;2024-01-15T07:54:46;11.48;;;5.57;;
84644;SDS011;74874;48.072;11.688;2024-01-15T07:57:12;12.40;;;5.25;;
84644;SDS011;74874;48.072;11.688;2024-01-15T07:59:38;12.38;;;5.07;;
84644;SDS011;74874;48.072;11.688;2024-01-15T08:02:03;12.02;;;5.28;;
84644;SDS011;74874;48.072;11.688;2024-01-15T08:04:28;13.55;;;5.00;;
84644;SDS011;74874;48.072;11.688;2024-01-15T08:06:54;11.05;;;4.65;;
84644;SDS011;74874;48.072;11.688;2024-01-15T08:09:19;12.27;;;5.00;;
84644;SDS011;74874;48.072;11.688;2024-01-15T08:11:45;11.55;;;5.20;;
84644;SDS011;74874;48.072;11.688;2024-01-15T08:14:11;11.45;;;5.43;;
84644;SDS011;74874;48.072;11.688;2024-01-15T08:16:37;9.18;;;5.13;;
84644;SDS011;74874;48.072;11.688;2024-01-15T08:19:03;10.93;;;5.35;;
84644;SDS011;74874;48.072;11.688;2024-01-15T08:21:28;14.48;;;6.15;;
84644;SDS011;74874;48.072;11.688;2024-01-15T08:23:56;12.43;;;5.10;;
84644;SDS011;74874;48.072;11.688;2024-01-15T08:26:21;12.10;;;4.82;;
84644;SDS011;74874;48.072;11.688;2024-01-15T08:28:47;10.30;;;4.25;;
84644;SDS011;74874;48.072;11.688;2024-01-15T08:31:13;15.18;;;5.45;;
84644;SDS011;74874;48.072;11.688;2024-01-15T08:33:38;10.93;;;5.03;;
84644;SDS011;74874;48.072;11.688;2024-01-15T08:36:04;12.50;;;5.40;;
84644;SDS011;74874;48.072;11.688;2024-01-15T08:38:29;10.63;;;4.95;;
84644;SDS011;74874;48.072;11.688;2024-01-15T08:40:54;11.18;;;4.65;;
84644;SDS011;74874;48.072;11.688;2024-01-15T08:43:21;8.95;;;4.05;;
84644;SDS011;74874;48.072;11.688;2024-01-15T08:45:47;10.85;;;4.63;;
84644;SDS011;74874;48.072;11.688;2024-01-15T08:48:13;11.35;;;4.72;;
84644;SDS011;74874;48.072;11.688;2024-01-15T08:50:38;8.98;;;4.72;;
84644;SDS011;74874;48.072;11.688;2024-01-15T08:53:04;11.32;;;5.43;;
84644;SDS011;74874;48.072;11.688;2024-01-15T08:55:29;11.80;;;5.75;;
84644;SDS011;74874;48.072;11.688;2024-01-15T08:57:54;10.13;;;4.85;;
84644;SDS011;74874;48.072;11.688;2024-01-15T09:00:20;12.25;;;5.32;;
84644;SDS011;74874;48.072;11.688;2024-01-15T09:02:45;12.05;;;5.70;;
84644;SDS011;74874;48.072;11.688;2024-01-15T09:05:11;12.98;;;5.57;;
84644;SDS011;74874;48.072;11.688;2024-01-15T09:07:36;13.30;;;6.10;;
84644;SDS011;74874;48.072;11.688;2024-01-15T09:10:01;13.23;;;5.32;;
84644;SDS011;74874;48.072;11.688;2024-01-15T09:12:27;10.70;;;5.55;;
84644;SDS011;74874;48.072;11.688;2024-01-15T09:14:52;12.00;;;5.30;;
84644;SDS011;74874;48.072;11.688;2024-01-15T09:17:18;12.60;;;6.25;;
84644;SDS011;74874;48.072;11.688;2024-01-15T09:19:44;11.07;;;4.97;;
84644;SDS011;74874;48.072;11.688;2024-01-15T09:22:12;12.02;;;5.05;;
84644;SDS011;74874;48.072;11.688;2024-01-15T09:24:39;12.73;;;5.45;;
84644;SDS011;74874;48.072;11.688;2024-01-15T09:27:05;11.55;;;5.50;;
84644;SDS011;74874;48.072;11.688;2024-01-15T09:29:30;12.93;;;5.38;;
84644;SDS011;74874;48.072;11.688;2024-01-15T09:31:56;11.02;;;5.22;;
84644;SDS011;74874;48.072;11.688;2024-01-15T09:34:22;12.25;;;6.15;;
84644;SDS011;74874;48.072;11.688;2024-01-15T09:36:47;12.60;;;5.85;;
84644;SDS011;74874;48.072;11.688;2024-01-15T09:39:13;14.75;;;6.07;;
84644;SDS011;74874;48.072;11.688;2024-01-15T09:41:40;13.52;;;5.63;;
84644;SDS011;74874;48.072;11.688;2024-01-15T09:44:06;10.50;;;4.80;;
84644;SDS011;74874;48.072;11.688;2024-01-15T09:46:34;9.10;;;4.85;;
84644;SDS011;74874;48.072;11.688;2024-01-15T09:49:00;10.73;;;4.55;;
84644;SDS011;74874;48.072;11.688;2024-01-15T09:51:26;13.00;;;4.53;;
84644;SDS011;74874;48.072;11.688;2024-01-15T09:53:54;9.10;;;4.13;;
84644;SDS011;74874;48.072;11.688;2024-01-15T09:56:20;10.23;;;5.38;;
84644;SDS011;74874;48.072;11.688;2024-01-15T09:58:45;8.50;;;4.10;;
84644;SDS011;74874;48.072;11.688;2024-01-15T10:01:11;12.15;;;4.55;;
84644;SDS011;74874;48.072;11.688;2024-01-15T10:03:37;9.43;;;4.57;;
84644;SDS011;74874;48.072;11.688;2024-01-15T10:06:04;9.48;;;3.97;;
84644;SDS011;74874;48.072;11.688;2024-01-15T10:08:29;8.35;;;3.58;;
84644;SDS011;74874;48.072;11.688;2024-01-15T10:10:55;7.30;;;3.75;;
84644;SDS011;74874;48.072;11.688;2024-01-15T10:13:20;8.82;;;3.33;;
84644;SDS011;74874;48.072;11.688;2024-01-15T10:15:46;8.57;;;4.03;;
84644;SDS011;74874;48.072;11.688;2024-01-15T10:18:14;9.00;;;3.30;;
84644;SDS011;74874;48.072;11.688;2024-01-15T10:20:40;9.05;;;3.75;;
84644;SDS011;74874;48.072;11.688;2024-01-15T10:23:05;7.50;;;3.33;;
84644;SDS011;74874;48.072;11.688;2024-01-15T10:25:30;7.20;;;3.40;;
84644;SDS011;74874;48.072;11.688;2024-01-15T10:28:03;9.88;;;3.40;;
84644;SDS011;74874;48.072;11.688;2024-01-15T10:30:29;10.70;;;3.85;;
84644;SDS011;74874;48.072;11.688;2024-01-15T10:32:58;7.53;;;2.78;;
84644;SDS011;74874;48.072;11.688;2024-01-15T10:35:28;8.65;;;3.17;;
84644;SDS011;74874;48.072;11.688;2024-01-15T10:38:00;6.40;;;2.92;;
84644;SDS011;74874;48.072;11.688;2024-01-15T10:40:27;6.43;;;2.95;;
84644;SDS011;74874;48.072;11.688;2024-01-15T10:42:52;6.50;;;2.95;;
84644;SDS011;74874;48.072;11.688;2024-01-15T10:45:18;6.85;;;2.90;;
84644;SDS011;74874;48.072;11.688;2024-01-15T10:47:44;6.82;;;3.10;;
84644;SDS011;74874;48.072;11.688;2024-01-15T10:50:09;5.55;;;2.80;;
84644;SDS011;74874;48.072;11.688;2024-01-15T10:52:39;6.70;;;3.33;;
84644;SDS011;74874;48.072;11.688;2024-01-15T10:55:09;6.22;;;2.70;;
84644;SDS011;74874;48.072;11.688;2024-01-15T10:57:35;4.75;;;2.58;;
84644;SDS011;74874;48.072;11.688;2024-01-15T11:00:02;6.72;;;2.50;;
84644;SDS011;74874;48.072;11.688;2024-01-15T11:02:30;7.32;;;2.80;;
84644;SDS011;74874;48.072;11.688;2024-01-15T11:05:00;7.03;;;2.38;;
84644;SDS011;74874;48.072;11.688;2024-01-15T11:07:26;6.68;;;2.40;;
84644;SDS011;74874;48.072;11.688;2024-01-15T11:09:51;6.30;;;2.60;;
84644;SDS011;74874;48.072;11.688;2024-01-15T11:12:16;4.32;;;1.95;;
84644;SDS011;74874;48.072;11.688;2024-01-15T11:14:45;4.43;;;2.10;;
84644;SDS011;74874;48.072;11.688;2024-01-15T11:17:12;4.20;;;2.03;;
84644;SDS011;74874;48.072;11.688;2024-01-15T11:22:09;4.70;;;2.10;;
84644;SDS011;74874;48.072;11.688;2024-01-15T11:24:39;5.07;;;2.10;;
84644;SDS011;74874;48.072;11.688;2024-01-15T11:27:06;9.43;;;3.38;;
84644;SDS011;74874;48.072;11.688;2024-01-15T11:29:35;4.20;;;1.83;;
84644;SDS011;74874;48.072;11.688;2024-01-15T11:32:04;4.95;;;2.63;;
84644;SDS011;74874;48.072;11.688;2024-01-15T11:37:14;5.30;;;2.30;;
84644;SDS011;74874;48.072;11.688;2024-01-15T11:39:40;7.28;;;2.13;;
84644;SDS011;74874;48.072;11.688;2024-01-15T11:42:09;4.25;;;1.85;;
84644;SDS011;74874;48.072;11.688;2024-01-15T11:44:36;4.45;;;1.60;;
84644;SDS011;74874;48.072;11.688;2024-01-15T11:47:03;6.30;;;2.33;;
84644;SDS011;74874;48.072;11.688;2024-01-15T11:52:17;6.65;;;2.20;;
84644;SDS011;74874;48.072;11.688;2024-01-15T11:57:50;4.38;;;2.05;;
84644;SDS011;74874;48.072;11.688;2024-01-15T12:00:16;6.20;;;2.15;;
84644;SDS011;74874;48.072;11.688;2024-01-15T12:02:43;4.82;;;2.25;;
84644;SDS011;74874;48.072;11.688;2024-01-15T12:05:09;4.75;;;1.90;;
84644;SDS011;74874;48.072;11.688;2024-01-15T12:07:37;4.97;;;2.28;;
84644;SDS011;74874;48.072;11.688;2024-01-15T12:10:02;5.50;;;2.42;;
84644;SDS011;74874;48.072;11.688;2024-01-15T12:12:44;4.25;;;2.10;;
84644;SDS011;74874;48.072;11.688;2024-01-15T12:15:26;3.95;;;1.80;;
84644;SDS011;74874;48.072;11.688;2024-01-15T12:17:52;3.13;;;1.50;;
84644;SDS011;74874;48.072;11.688;2024-01-15T12:20:19;5.38;;;2.00;;
84644;SDS011;74874;48.072;11.688;2024-01-15T12:22:45;5.10;;;1.45;;
84644;SDS011;74874;48.072;11.688;2024-01-15T12:25:11;3.17;;;1.40;;
84644;SDS011;74874;48.072;11.688;2024-01-15T12:27:36;5.10;;;2.00;;
84644;SDS011;74874;48.072;11.688;2024-01-15T12:30:02;4.20;;;1.90;;
84644;SDS011;74874;48.072;11.688;2024-01-15T12:32:27;4.13;;;1.70;;
84644;SDS011;74874;48.072;11.688;2024-01-15T12:34:56;3.67;;;1.90;;
84644;SDS011;74874;48.072;11.688;2024-01-15T12:37:21;4.55;;;1.75;;
84644;SDS011;74874;48.072;11.688;2024-01-15T12:39:47;3.95;;;1.52;;
84644;SDS011;74874;48.072;11.688;2024-01-15T12:42:16;2.63;;;1.35;;
84644;SDS011;74874;48.072;11.688;2024-01-15T12:44:41;6.05;;;1.95;;
84644;SDS011;74874;48.072;11.688;2024-01-15T12:47:07;2.75;;;1.17;;
84644;SDS011;74874;48.072;11.688;2024-01-15T12:49:32;3.72;;;1.55;;
84644;SDS011;74874;48.072;11.688;2024-01-15T12:51:58;3.35;;;1.55;;
84644;SDS011;74874;48.072;11.688;2024-01-15T12:54:24;4.35;;;1.98;;
84644;SDS011;74874;48.072;11.688;2024-01-15T12:56:50;3.03;;;1.50;;
84644;SDS011;74874;48.072;11.688;2024-01-15T12:59:16;4.45;;;2.05;;
84644;SDS011;74874;48.072;11.688;2024-01-15T13:01:42;4.75;;;2.13;;
84644;SDS011;74874;48.072;11.688;2024-01-15T13:04:07;3.25;;;1.60;;
84644;SDS011;74874;48.072;11.688;2024-01-15T13:06:35;5.90;;;2.50;;
84644;SDS011;74874;48.072;11.688;2024-01-15T13:09:01;7.78;;;2.58;;
84644;SDS011;74874;48.072;11.688;2024-01-15T13:11:28;5.50;;;2.55;;
84644;SDS011;74874;48.072;11.688;2024-01-15T13:13:53;4.90;;;2.15;;
84644;SDS011;74874;48.072;11.688;2024-01-15T13:16:18;5.05;;;2.42;;
84644;SDS011;74874;48.072;11.688;2024-01-15T13:18:45;6.53;;;2.40;;
84644;SDS011;74874;48.072;11.688;2024-01-15T13:21:11;7.47;;;3.00;;
84644;SDS011;74874;48.072;11.688;2024-01-15T13:23:37;7.70;;;2.95;;
84644;SDS011;74874;48.072;11.688;2024-01-15T13:26:03;7.45;;;3.58;;
84644;SDS011;74874;48.072;11.688;2024-01-15T13:28:28;7.55;;;3.53;;
84644;SDS011;74874;48.072;11.688;2024-01-15T13:30:53;5.70;;;3.30;;
84644;SDS011;74874;48.072;11.688;2024-01-15T13:33:19;5.60;;;2.67;;
84644;SDS011;74874;48.072;11.688;2024-01-15T13:35:44;8.10;;;3.70;;
84644;SDS011;74874;48.072;11.688;2024-01-15T13:38:10;5.35;;;3.05;;
84644;SDS011;74874;48.072;11.688;2024-01-15T13:40:36;5.90;;;2.50;;
84644;SDS011;74874;48.072;11.688;2024-01-15T13:43:01;6.60;;;3.28;;
84644;SDS011;74874;48.072;11.688;2024-01-15T13:45:27;9.18;;;2.95;;
84644;SDS011;74874;48.072;11.688;2024-01-15T13:47:53;4.60;;;2.25;;
84644;SDS011;74874;48.072;11.688;2024-01-15T13:50:18;6.80;;;3.20;;
84644;SDS011;74874;48.072;11.688;2024-01-15T13:52:43;5.38;;;2.40;;
84644;SDS011;74874;48.072;11.688;2024-01-15T13:55:09;5.35;;;2.72;;
84644;SDS011;74874;48.072;11.688;2024-01-15T13:57:34;4.32;;;2.35;;
84644;SDS011;74874;48.072;11.688;2024-01-15T13:59:59;6.55;;;2.28;;
84644;SDS011;74874;48.072;11.688;2024-01-15T14:02:25;5.18;;;2.42;;
84644;SDS011;74874;48.072;11.688;2024-01-15T14:04:50;5.63;;;2.83;;
84644;SDS011;74874;48.072;11.688;2024-01-15T14:07:16;5.35;;;2.42;;
84644;SDS011;74874;48.072;11.688;2024-01-15T14:09:41;4.50;;;1.88;;
84644;SDS011;74874;48.072;11.688;2024-01-15T14:12:07;5.68;;;2.50;;
84644;SDS011;74874;48.072;11.688;2024-01-15T14:14:32;8.32;;;2.97;;
84644;SDS011;74874;48.072;11.688;2024-01-15T14:16:58;5.15;;;2.15;;
84644;SDS011;74874;48.072;11.688;2024-01-15T14:19:23;5.03;;;2.63;;
84644;SDS011;74874;48.072;11.688;2024-01-15T14:21:48;6.40;;;3.03;;
84644;SDS011;74874;48.072;11.688;2024-01-15T14:24:14;5.57;;;2.78;;
84644;SDS011;74874;48.072;11.688;2024-01-15T14:26:39;5.85;;;2.65;;
84644;SDS011;74874;48.072;11.688;2024-01-15T14:29:04;5.00;;;2.25;;